createdAt,value
2024-01-05T00:01:28.197Z,0.50
2024-01-05T00:04:31.397Z,0.50
2024-01-05T00:07:34.113Z,0.57
2024-01-05T00:10:36.784Z,0.43
2024-01-05T00:13:39.483Z,0.60
2024-01-05T00:16:42.380Z,0.40
2024-01-05T00:19:45.359Z,0.85
2024-01-05T00:22:48.406Z,0.45
2024-01-05T00:25:51.038Z,0.50
2024-01-05T00:28:54.535Z,0.40
2024-01-05T00:31:57.311Z,0.33
2024-01-05T00:35:00.335Z,0.50
2024-01-05T00:38:03.087Z,0.35
2024-01-05T00:41:06.232Z,0.45
2024-01-05T00:44:08.643Z,0.60
2024-01-05T00:47:11.419Z,0.53
2024-01-05T00:50:13.898Z,0.30
2024-01-05T00:53:16.715Z,0.40
2024-01-05T00:56:19.173Z,0.30
2024-01-05T00:59:22.438Z,0.40
2024-01-05T01:02:25.144Z,0.33
2024-01-05T01:05:28.024Z,0.30
2024-01-05T01:08:30.479Z,0.40
2024-01-05T01:11:33.475Z,0.50
2024-01-05T01:14:36.213Z,0.32
2024-01-05T01:17:39.046Z,0.50
2024-01-05T01:20:41.480Z,0.30
2024-01-05T01:23:44.256Z,0.50
2024-01-05T01:26:46.969Z,0.50
2024-01-05T01:29:50.013Z,0.65
2024-01-05T01:32:52.851Z,0.40
2024-01-05T01:35:55.659Z,0.50
2024-01-05T01:38:58.117Z,0.40
2024-01-05T01:42:01.342Z,0.40
2024-01-05T01:45:04.371Z,0.52
2024-01-05T01:48:07.596Z,0.50
2024-01-05T01:51:10.824Z,0.60
2024-01-05T01:54:14.101Z,0.40
2024-01-05T01:57:19.077Z,0.77
2024-01-05T02:00:22.036Z,0.50
2024-01-05T02:03:25.380Z,0.50
2024-01-05T02:06:28.059Z,0.50
2024-01-05T02:09:31.783Z,0.30
2024-01-05T02:12:34.398Z,0.40
2024-01-05T02:15:37.245Z,0.43
2024-01-05T02:18:40.107Z,0.77
2024-01-05T02:21:48.480Z,0.50
2024-01-05T02:24:51.155Z,0.50
2024-01-05T02:27:54.145Z,0.40
2024-01-05T02:30:59.737Z,0.50
2024-01-05T02:34:03.150Z,0.40
2024-01-05T02:37:05.861Z,0.50
2024-01-05T02:40:09.814Z,0.40
2024-01-05T02:43:12.558Z,0.40
2024-01-05T02:46:15.244Z,0.40
2024-01-05T02:49:18.052Z,0.40
2024-01-05T02:52:21.069Z,0.40
2024-01-05T02:55:23.574Z,0.50
2024-01-05T02:58:26.247Z,0.30
2024-01-05T03:01:28.744Z,0.40
2024-01-05T03:04:31.817Z,0.40
2024-01-05T03:07:34.529Z,0.50
2024-01-05T03:10:37.258Z,0.60
2024-01-05T03:13:40.008Z,0.50
2024-01-05T03:16:43.238Z,0.50
2024-01-05T03:19:46.135Z,0.40
2024-01-05T03:22:49.070Z,0.60
2024-01-05T03:25:54.744Z,0.50
2024-01-05T03:29:00.051Z,0.55
2024-01-05T03:32:02.496Z,0.50
2024-01-05T03:35:05.619Z,1.03
2024-01-05T03:38:08.327Z,0.40
2024-01-05T03:41:11.764Z,0.75
2024-01-05T03:44:21.411Z,0.37
2024-01-05T03:47:24.342Z,0.40
2024-01-05T03:50:27.006Z,0.47
2024-01-05T03:53:30.451Z,0.50
2024-01-05T03:56:43.856Z,0.50
2024-01-05T03:59:46.955Z,0.50
2024-01-05T04:02:49.684Z,0.50
2024-01-05T04:05:52.713Z,0.40
2024-01-05T04:08:55.513Z,3.25
2024-01-05T04:11:59.048Z,1.92
2024-01-05T04:15:01.699Z,0.50
2024-01-05T04:18:05.657Z,0.43
2024-01-05T04:21:08.188Z,0.40
2024-01-05T04:24:12.109Z,0.35
2024-01-05T04:27:14.880Z,0.40
2024-01-05T04:30:18.058Z,0.60
2024-01-05T04:33:20.634Z,0.50
2024-01-05T04:36:23.456Z,0.50
2024-01-05T04:39:26.246Z,0.50
2024-01-05T04:42:29.846Z,0.40
2024-01-05T04:45:32.663Z,0.40
2024-01-05T04:48:35.983Z,0.40
2024-01-05T04:51:39.653Z,0.40
2024-01-05T04:54:43.782Z,0.40
2024-01-05T04:57:46.708Z,0.40
2024-01-05T05:00:49.980Z,0.32
2024-01-05T05:03:52.836Z,0.45
2024-01-05T05:06:55.719Z,0.30
2024-01-05T05:09:58.402Z,0.50
2024-01-05T05:13:01.368Z,2.25
2024-01-05T05:16:04.063Z,1.92
2024-01-05T05:19:06.937Z,0.60
2024-01-05T05:22:09.748Z,0.87
2024-01-05T05:25:12.813Z,0.37
2024-01-05T05:28:15.293Z,0.50
2024-01-05T05:31:18.326Z,0.40
2024-01-05T05:34:21.137Z,0.43
2024-01-05T05:37:24.005Z,0.43
2024-01-05T05:40:26.915Z,0.45
2024-01-05T05:43:29.835Z,0.30
2024-01-05T05:46:32.210Z,0.37
2024-01-05T05:49:35.080Z,0.40
2024-01-05T05:52:37.668Z,0.40
2024-01-05T05:55:40.665Z,0.55
2024-01-05T05:58:43.112Z,0.50
2024-01-05T06:01:46.805Z,3.60
2024-01-05T06:04:49.866Z,0.50
2024-01-05T06:07:52.532Z,0.40
2024-01-05T06:10:55.467Z,0.40
2024-01-05T06:13:58.410Z,0.40
2024-01-05T06:17:01.191Z,0.50
2024-01-05T06:20:04.658Z,0.57
2024-01-05T06:23:08.238Z,0.40
2024-01-05T06:26:10.923Z,0.57
2024-01-05T06:29:13.918Z,1.30
2024-01-05T06:32:16.624Z,0.50
2024-01-05T06:35:19.616Z,0.68
2024-01-05T06:38:22.337Z,0.50
2024-01-05T06:41:25.451Z,0.68
2024-01-05T06:44:27.884Z,2.80
2024-01-05T06:47:30.669Z,0.50
2024-01-05T06:50:36.280Z,1.13
2024-01-05T06:53:40.166Z,0.50
2024-01-05T06:56:43.861Z,0.40
2024-01-05T06:59:47.251Z,0.50
2024-01-05T07:02:50.018Z,2.35
2024-01-05T07:05:52.745Z,0.50
2024-01-05T07:08:55.433Z,2.10
2024-01-05T07:11:58.561Z,3.12
2024-01-05T07:15:02.067Z,0.50
2024-01-05T07:18:07.469Z,1.15
2024-01-05T07:21:10.443Z,0.40
2024-01-05T07:24:16.975Z,0.50
2024-01-05T07:27:19.530Z,1.45
2024-01-05T07:33:25.995Z,1.15
2024-01-05T07:36:29.506Z,1.90
2024-01-05T07:39:32.110Z,1.17
2024-01-05T07:42:35.081Z,0.40
2024-01-05T07:45:37.611Z,0.40
2024-01-05T07:48:42.172Z,0.60
2024-01-05T07:51:45.105Z,0.37
2024-01-05T07:54:48.202Z,1.77
2024-01-05T07:57:50.995Z,1.75
2024-01-05T08:00:56.648Z,0.80
2024-01-05T08:04:01.242Z,0.70
2024-01-05T08:07:05.136Z,0.40
2024-01-05T08:10:11.287Z,0.80
2024-01-05T08:13:14.060Z,0.40
2024-01-05T08:18:48.614Z,0.52
2024-01-05T08:21:55.671Z,0.87
2024-01-05T08:24:58.962Z,0.70
2024-01-05T08:28:03.652Z,0.80
2024-01-05T08:31:07.007Z,0.60
2024-01-05T08:34:10.420Z,0.32
2024-01-05T08:37:13.152Z,0.43
2024-01-05T08:40:16.182Z,1.40
2024-01-05T08:43:19.314Z,0.55
2024-01-05T08:46:22.320Z,1.02
2024-01-05T08:49:25.394Z,0.20
2024-01-05T08:52:28.440Z,1.00
2024-01-05T08:55:30.927Z,0.93
2024-01-05T08:58:33.666Z,1.15
2024-01-05T09:01:38.937Z,0.60
2024-01-05T09:04:43.075Z,0.77
2024-01-05T09:07:45.509Z,1.07
2024-01-05T09:10:48.641Z,0.70
2024-01-05T09:13:51.184Z,0.82
2024-01-05T09:16:54.197Z,0.77
2024-01-05T09:19:56.779Z,0.68
2024-01-05T09:23:01.238Z,0.40
2024-01-05T09:26:04.571Z,0.53
2024-01-05T09:29:07.875Z,1.37
2024-01-05T09:32:10.707Z,0.40
2024-01-05T09:35:13.940Z,0.68
2024-01-05T09:38:16.615Z,0.60
2024-01-05T09:41:19.398Z,0.33
2024-01-05T09:44:22.630Z,0.57
2024-01-05T09:47:25.633Z,0.55
2024-01-05T09:50:28.514Z,0.30
2024-01-05T09:53:31.357Z,1.13
2024-01-05T09:56:34.272Z,0.43
2024-01-05T09:59:40.040Z,0.73
2024-01-05T10:02:51.890Z,0.50
2024-01-05T10:05:55.315Z,0.60
2024-01-05T10:09:01.277Z,0.50
2024-01-05T10:12:13.443Z,0.57
2024-01-05T10:15:16.280Z,0.47
2024-01-05T10:18:23.039Z,0.80
2024-01-05T10:21:27.804Z,0.60
2024-01-05T10:24:31.545Z,0.60
2024-01-05T10:27:34.352Z,0.50
2024-01-05T10:30:37.376Z,0.75
2024-01-05T10:33:53.084Z,0.52
2024-01-05T10:37:06.161Z,1.10
2024-01-05T10:40:17.833Z,0.50
2024-01-05T10:43:23.874Z,0.40
2024-01-05T10:46:27.354Z,0.40
2024-01-05T10:49:31.890Z,0.50
2024-01-05T10:52:35.059Z,0.57
2024-01-05T10:55:39.521Z,0.40
2024-01-05T10:58:43.681Z,0.40
2024-01-05T11:01:48.841Z,0.50
2024-01-05T11:05:12.858Z,0.37
2024-01-05T11:08:41.315Z,0.50
2024-01-05T11:12:07.062Z,0.57
2024-01-05T11:15:19.562Z,0.60
2024-01-05T11:18:37.758Z,0.43
2024-01-05T11:21:55.915Z,0.50
2024-01-05T11:24:59.421Z,0.40
2024-01-05T11:28:03.356Z,0.30
2024-01-05T11:31:06.425Z,0.40
2024-01-05T11:34:09.839Z,1.05
2024-01-05T11:37:12.619Z,1.05
2024-01-05T11:40:34.164Z,1.15
2024-01-05T11:43:39.059Z,0.93
2024-01-05T11:46:52.737Z,0.93
2024-01-05T11:49:55.520Z,0.45
2024-01-05T11:53:20.629Z,0.52
2024-01-05T11:56:26.421Z,0.45
2024-01-05T11:59:29.468Z,1.30
2024-01-05T12:02:31.905Z,0.43
2024-01-05T12:05:34.766Z,0.52
2024-01-05T12:08:37.742Z,1.00
2024-01-05T12:11:40.408Z,1.00
2024-01-05T12:14:42.920Z,0.77
2024-01-05T12:17:45.911Z,0.40
2024-01-05T12:20:53.935Z,0.50
2024-01-05T12:23:57.818Z,1.02
2024-01-05T12:27:00.916Z,0.40
2024-01-05T12:30:06.217Z,0.93
2024-01-05T12:33:09.715Z,0.50
2024-01-05T12:36:24.340Z,0.70
2024-01-05T12:39:26.921Z,0.60
2024-01-05T12:42:29.896Z,0.50
2024-01-05T12:45:32.377Z,1.20
2024-01-05T12:48:35.384Z,0.60
2024-01-05T12:51:48.103Z,0.70
2024-01-05T12:54:51.094Z,1.00
2024-01-05T12:57:53.941Z,0.70
2024-01-05T13:01:00.386Z,1.53
2024-01-05T13:04:04.348Z,0.60
2024-01-05T13:07:09.828Z,0.62
2024-01-05T13:10:12.973Z,0.50
2024-01-05T13:13:15.927Z,1.35
2024-01-05T13:16:19.106Z,0.37
2024-01-05T13:19:22.220Z,1.00
2024-01-05T13:22:25.054Z,1.15
2024-01-05T13:25:28.098Z,0.88
2024-01-05T13:28:36.672Z,1.20
2024-01-05T13:31:40.066Z,1.63
2024-01-05T13:34:42.713Z,2.00
2024-01-05T13:37:45.633Z,1.50
2024-01-05T13:40:48.104Z,1.42
2024-01-05T13:43:51.276Z,1.27
2024-01-05T13:46:54.010Z,1.00
2024-01-05T13:49:56.848Z,0.60
2024-01-05T13:53:00.299Z,0.40
2024-01-05T13:56:03.706Z,1.05
2024-01-05T13:59:06.154Z,0.60
2024-01-05T14:02:08.999Z,1.80
2024-01-05T14:05:11.807Z,0.87
2024-01-05T14:08:16.670Z,0.80
2024-01-05T14:11:19.433Z,0.88
2024-01-05T14:14:22.206Z,0.57
2024-01-05T14:17:25.230Z,1.80
2024-01-05T14:20:27.951Z,2.57
2024-01-05T14:23:30.978Z,1.30
2024-01-05T14:26:34.104Z,3.12
2024-01-05T14:29:37.144Z,3.05
2024-01-05T14:32:40.597Z,3.20
2024-01-05T14:35:44.049Z,9.67
2024-01-05T14:38:47.054Z,9.55
2024-01-05T14:41:50.083Z,6.68
2024-01-05T14:44:53.772Z,4.40
2024-01-05T14:47:57.732Z,2.17
2024-01-05T14:51:01.313Z,1.33
2024-01-05T14:54:04.715Z,1.35
2024-01-05T14:57:07.605Z,3.17
2024-01-05T15:00:11.495Z,3.33
2024-01-05T15:03:13.999Z,0.67
2024-01-05T15:06:24.930Z,1.30
2024-01-05T15:09:28.313Z,1.35
2024-01-05T15:12:31.377Z,2.22
2024-01-05T15:15:34.352Z,1.50
2024-01-05T15:18:37.260Z,0.67
2024-01-05T15:21:40.721Z,3.53
2024-01-05T15:24:46.563Z,1.10
2024-01-05T15:27:51.501Z,3.25
2024-01-05T15:30:56.041Z,0.82
2024-01-05T15:33:58.739Z,1.17
2024-01-05T15:37:01.733Z,3.60
2024-01-05T15:40:05.080Z,7.07
2024-01-05T15:43:08.107Z,6.85
2024-01-05T15:46:11.659Z,1.60
2024-01-05T15:49:14.882Z,1.77
2024-01-05T15:52:17.707Z,0.57
2024-01-05T15:55:23.219Z,0.60
2024-01-05T15:58:26.044Z,1.00
2024-01-05T16:01:29.006Z,0.68
2024-01-05T16:04:34.576Z,0.70
2024-01-05T16:07:37.323Z,0.77
2024-01-05T16:10:40.200Z,0.50
2024-01-05T16:13:43.516Z,1.85
2024-01-05T16:16:47.110Z,1.60
2024-01-05T16:19:50.116Z,0.50
2024-01-05T16:22:53.428Z,1.73
2024-01-05T16:25:56.202Z,0.52
2024-01-05T16:28:59.185Z,1.20
2024-01-05T16:32:01.844Z,1.60
2024-01-05T16:35:05.803Z,10.70
2024-01-05T16:38:10.186Z,5.43
2024-01-05T16:41:16.588Z,7.45
2024-01-05T16:44:19.042Z,8.95
2024-01-05T16:47:22.503Z,6.47
2024-01-05T16:50:26.197Z,1.33
2024-01-05T16:53:34.425Z,3.77
2024-01-05T16:56:45.910Z,1.25
2024-01-05T16:59:51.883Z,1.50
2024-01-05T17:02:55.174Z,0.73
2024-01-05T17:05:57.955Z,1.90
2024-01-05T17:09:00.527Z,0.50
2024-01-05T17:12:06.650Z,1.67
2024-01-05T17:15:10.074Z,1.23
2024-01-05T17:18:13.233Z,1.20
2024-01-05T17:21:15.942Z,0.50
2024-01-05T17:24:19.524Z,1.43
2024-01-05T17:27:22.328Z,0.65
2024-01-05T17:30:25.973Z,0.57
2024-01-05T17:33:28.802Z,0.62
2024-01-05T17:36:31.863Z,1.27
2024-01-05T17:39:35.845Z,0.80
2024-01-05T17:42:39.846Z,0.77
2024-01-05T17:45:43.433Z,3.60
2024-01-05T17:48:47.286Z,2.03
2024-01-05T17:51:50.994Z,0.80
2024-01-05T17:54:54.445Z,0.60
2024-01-05T17:57:58.001Z,0.82
2024-01-05T18:01:05.893Z,0.85
2024-01-05T18:04:15.957Z,0.85
2024-01-05T18:07:19.710Z,0.53
2024-01-05T18:10:23.940Z,2.13
2024-01-05T18:13:27.382Z,0.40
2024-01-05T18:16:37.094Z,1.00
2024-01-05T18:19:42.303Z,0.73
2024-01-05T18:22:47.368Z,2.10
2024-01-05T18:25:50.971Z,0.67
2024-01-05T18:28:55.325Z,1.08
2024-01-05T18:31:59.803Z,2.90
2024-01-05T18:35:03.713Z,2.65
2024-01-05T18:38:07.363Z,0.57
2024-01-05T18:41:21.203Z,1.80
2024-01-05T18:44:24.870Z,0.80
2024-01-05T18:47:28.912Z,0.90
2024-01-05T18:50:31.453Z,0.62
2024-01-05T18:53:34.471Z,0.80
2024-01-05T18:56:37.138Z,0.70
2024-01-05T18:59:40.010Z,1.35
2024-01-05T19:02:42.591Z,0.40
2024-01-05T19:05:45.945Z,1.25
2024-01-05T19:08:48.881Z,2.57
2024-01-05T19:11:52.725Z,1.03
2024-01-05T19:14:55.811Z,0.60
2024-01-05T19:17:58.801Z,0.75
2024-01-05T19:21:05.428Z,0.93
2024-01-05T19:24:10.152Z,0.60
2024-01-05T19:27:12.986Z,0.60
2024-01-05T19:30:16.288Z,3.22
2024-01-05T19:33:19.299Z,0.93
2024-01-05T19:36:22.609Z,1.12
2024-01-05T19:39:26.012Z,0.90
2024-01-05T19:42:28.880Z,1.83
2024-01-05T19:45:31.678Z,0.32
2024-01-05T19:48:38.320Z,1.20
2024-01-05T19:51:48.320Z,1.23
2024-01-05T19:54:55.333Z,2.10
2024-01-05T19:57:58.146Z,0.40
2024-01-05T20:01:04.063Z,1.65
2024-01-05T20:04:07.454Z,1.25
2024-01-05T20:07:10.055Z,2.47
2024-01-05T20:10:14.030Z,2.33
2024-01-05T20:13:19.022Z,1.37
2024-01-05T20:16:22.291Z,1.33
2024-01-05T20:19:25.178Z,3.00
2024-01-05T20:22:27.925Z,1.60
2024-01-05T20:25:31.331Z,1.90
2024-01-05T20:28:34.420Z,0.40
2024-01-05T20:31:37.312Z,1.12
2024-01-05T20:34:40.592Z,0.95
2024-01-05T20:37:43.750Z,1.12
2024-01-05T20:40:47.373Z,0.73
2024-01-05T20:43:50.100Z,3.40
2024-01-05T20:46:53.147Z,1.12
2024-01-05T20:49:56.299Z,1.10
2024-01-05T20:53:11.066Z,1.20
2024-01-05T20:56:15.396Z,2.67
2024-01-05T20:59:18.380Z,0.50
2024-01-05T21:02:20.858Z,0.88
2024-01-05T21:05:23.965Z,1.08
2024-01-05T21:08:28.669Z,2.40
2024-01-05T21:11:31.484Z,3.80
2024-01-05T21:14:37.161Z,1.30
2024-01-05T21:17:40.298Z,1.30
2024-01-05T21:20:43.646Z,0.90
2024-01-05T21:23:46.650Z,2.15
2024-01-05T21:26:49.159Z,0.60
2024-01-05T21:29:52.129Z,1.20
2024-01-05T21:32:54.933Z,1.90
2024-01-05T21:35:57.911Z,1.37
2024-01-05T21:39:00.667Z,1.37
2024-01-05T21:42:04.582Z,0.93
2024-01-05T21:45:08.148Z,2.90
2024-01-05T21:48:11.106Z,2.15
2024-01-05T21:51:15.130Z,1.87
2024-01-05T21:54:18.359Z,1.05
2024-01-05T21:57:21.108Z,0.77
2024-01-05T22:00:23.948Z,1.23
2024-01-05T22:03:27.045Z,0.93
2024-01-05T22:06:30.540Z,1.60
2024-01-05T22:09:33.629Z,4.00
2024-01-05T22:12:36.292Z,1.33
2024-01-05T22:15:39.224Z,0.50
2024-01-05T22:18:41.876Z,2.30
2024-01-05T22:21:44.771Z,2.37
2024-01-05T22:24:47.835Z,0.70
2024-01-05T22:27:51.311Z,0.77
2024-01-05T22:30:54.145Z,1.27
2024-01-05T22:33:57.442Z,1.20
2024-01-05T22:37:07.129Z,2.75
2024-01-05T22:40:10.175Z,3.17
2024-01-05T22:43:12.583Z,0.70
2024-01-05T22:46:17.426Z,1.43
2024-01-05T22:49:20.322Z,0.95
2024-01-05T22:52:23.449Z,1.15
2024-01-05T22:55:26.055Z,1.67
2024-01-05T22:58:28.764Z,0.50
2024-01-05T23:01:31.323Z,2.97
2024-01-05T23:04:34.504Z,2.40
2024-01-05T23:07:37.438Z,0.85
2024-01-05T23:10:40.411Z,2.00
2024-01-05T23:13:42.980Z,1.80
2024-01-05T23:16:48.279Z,1.40
2024-01-05T23:19:51.491Z,0.40
2024-01-05T23:22:54.527Z,2.05
2024-01-05T23:25:57.230Z,1.50
2024-01-05T23:29:00.190Z,1.43
2024-01-05T23:32:03.967Z,0.87
2024-01-05T23:35:07.347Z,0.98
2024-01-05T23:38:10.063Z,1.27
2024-01-05T23:41:14.138Z,0.93
2024-01-05T23:44:16.880Z,0.60
2024-01-05T23:47:19.980Z,2.07
2024-01-05T23:50:22.735Z,1.20
2024-01-05T23:53:25.427Z,0.93
2024-01-05T23:56:28.120Z,2.50
2024-01-05T23:59:30.860Z,3.50
